Data for 06/27/2017

Time Sea-Level Adjusted Pressure Absolute Pressure Temperature Relative Humidity Dew Point   
(mb) (inHg) (mb) (inHg) (C) (F) (%) (C) (F)
00:05 1017 30.03 847 25.01 22.1 71.8 30 4 39.2
00:10 1018 30.06 847 25.01 22.3 72.1 32 5 41
00:15 1018 30.06 847 25.01 22 71.6 33 5.4 41.7
00:20 1018 30.06 847 25.01 21.4 70.4 38 6.5 43.8
00:25 1018 30.06 847 25.01 20.6 69 41 7.1 44.8
00:30 1018 30.06 847 25.01 20.3 68.5 39 6.2 43.1
00:35 1018 30.06 847 25.01 20 68 48 8.9 48
00:40 1018 30.06 847 25.01 18.8 65.9 51 8.7 47.6
00:45 1018 30.06 847 25.01 18.4 65.2 51 8.3 47
00:50 1018 30.06 847 25.01 18.4 65.1 52 8.6 47.4
00:55 1017 30.03 847 25.01 18.3 65 54 8.9 48
01:00 1017 30.03 846 24.98 18.2 64.7 57 9.7 49.5
01:05 1016 30 845 24.95 17.4 63.4 60 9.6 49.3
01:10 1016 30 846 24.98 17.1 62.8 61 9.6 49.2
01:15 1017 30.03 846 24.98 17.1 62.7 61 9.7 49.4
01:20 1017 30.03 846 24.98 17 62.7 61 9.6 49.2
01:25 1016 30 845 24.95 17 62.6 57 8.6 47.4
01:30 1016 30 845 24.95 17.3 63.2 56 8.5 47.3
01:35 1016 30 845 24.95 17.6 63.7 49 7 44.5
01:40 1016 30 845 24.95 17.6 63.8 64 10.8 51.4
01:45 1016 30 845 24.95 16.7 62.1 60 8.9 48
01:50 1016 30 846 24.98 17 62.6 61 9.6 49.3
01:55 1017 30.03 846 24.98 16.8 62.2 64 9.9 49.9
02:00 1017 30.03 846 24.98 16.6 61.8 64 9.7 49.5
02:05 1017 30.03 846 24.98 16.6 61.8 64 9.9 49.8
02:10 1017 30.03 846 24.98 16.6 62 63 9.7 49.5
02:15 1017 30.03 846 24.98 16.7 62.1 65 10.1 50.2
02:20 1017 30.03 846 24.98 16.8 62.2 65 10.2 50.3
02:25 1017 30.03 846 24.98 16.8 62.2 66 10.4 50.6
02:30 1017 30.03 846 24.98 16.7 62 64 9.9 49.8
02:35 1017 30.03 846 24.98 16.7 62.1 64 9.9 49.9
02:40 1017 30.03 846 24.98 16.7 62.1 65 10.2 50.3
02:45 1017 30.03 846 24.98 16.6 61.8 67 10.5 50.9
02:50 1017 30.03 846 24.98 16.3 61.3 68 10.3 50.6
02:55 1016 30 845 24.95 16.1 60.9 68 10.2 50.3
03:00 1016 30 845 24.95 16 60.7 68 10.1 50.2
03:05 1016 30 845 24.95 15.9 60.6 69 10.3 50.6
03:10 1016 30 845 24.95 15.5 59.9 72 10.4 50.8
03:15 1016 30 845 24.95 15.1 59.2 72 10.1 50.1
03:20 1016 30 845 24.95 14.9 58.9 71 9.9 49.7
03:25 1016 30 845 24.95 15 58.9 71 9.7 49.5
03:30 1016 30 845 24.95 14.9 58.9 71 9.7 49.5
03:35 1016 30 845 24.95 15 58.9 70 9.6 49.4
03:40 1016 30 845 24.95 15 59 68 9.2 48.6
03:45 1016 30 845 24.95 15.4 59.7 66 9.2 48.5
03:50 1015 29.97 845 24.95 15.2 59.4 69 9.7 49.4
03:55 1015 29.97 845 24.95 14.6 58.3 71 9.5 49.1
04:00 1015 29.97 845 24.95 14.4 57.9 72 9.4 49
04:05 1015 29.97 844 24.92 14.4 57.8 72 9.4 49
04:10 1015 29.97 844 24.92 14.3 57.7 71 9.2 48.6
04:15 1015 29.97 844 24.92 14.3 57.7 72 9.4 48.8
04:20 1015 29.97 844 24.92 14.1 57.3 72 9.2 48.5
04:25 1015 29.97 844 24.92 13.8 56.8 75 9.4 48.8
04:30 1015 29.97 844 24.92 13.5 56.3 74 9.1 48.3
04:35 1015 29.97 844 24.92 13.6 56.4 74 9 48.2
04:40 1014 29.94 844 24.92 13.7 56.7 72 8.9 48
04:45 1014 29.94 844 24.92 13.9 57 72 8.9 48.1
04:50 1014 29.94 844 24.92 13.9 57 71 8.8 47.8
04:55 1014 29.94 844 24.92 14.1 57.4 72 9.1 48.4
05:00 1014 29.94 844 24.92 13.9 57 73 9.1 48.4
05:05 1014 29.94 844 24.92 13.6 56.6 72 8.8 47.8
05:10 1015 29.97 844 24.92 14 57.1 70 8.7 47.7
05:15 1015 29.97 844 24.92 14.2 57.5 70 8.9 47.9
05:20 1014 29.94 844 24.92 14.2 57.6 69 8.8 47.8
05:25 1014 29.94 844 24.92 14.2 57.6 71 9 48.2
05:30 1014 29.94 844 24.92 14.1 57.4 71 9 48.2
05:35 1014 29.94 844 24.92 13.9 57.1 71 8.8 47.9
05:40 1014 29.94 844 24.92 14 57.1 71 8.9 48
05:45 1014 29.94 844 24.92 13.8 56.9 72 9 48.2
05:50 1014 29.94 844 24.92 13.6 56.4 73 8.9 48
05:55 1014 29.94 844 24.92 13.6 56.5 72 8.7 47.6
06:00 1014 29.94 844 24.92 13.7 56.7 71 8.6 47.5
06:05 1014 29.94 844 24.92 13.9 56.9 70 8.6 47.4
06:10 1014 29.94 844 24.92 13.8 56.9 71 8.7 47.7
06:15 1014 29.94 844 24.92 13.7 56.7 72 8.8 47.8
06:20 1014 29.94 844 24.92 13.6 56.5 73 8.8 47.9
06:25 1015 29.97 844 24.92 13.4 56.1 73 8.7 47.6
06:30 1015 29.97 844 24.92 13.4 56.1 73 8.6 47.5
06:35 1015 29.97 844 24.92 13.5 56.3 72 8.6 47.5
06:40 1015 29.97 844 24.92 13.5 56.3 73 8.7 47.6
06:45 1015 29.97 844 24.92 13.4 56.2 72 8.5 47.3
06:50 1015 29.97 844 24.92 13.6 56.4 72 8.5 47.4
06:55 1015 29.97 844 24.92 13.8 56.8 71 8.6 47.4
07:00 1015 29.97 844 24.92 14 57.1 69 8.5 47.3
07:05 1015 29.97 844 24.92 14.1 57.3 69 8.6 47.5
07:10 1015 29.97 844 24.92 14.2 57.5 69 8.6 47.5
07:15 1015 29.97 844 24.92 14.3 57.8 69 8.7 47.7
07:20 1015 29.97 844 24.92 14.5 58.1 68 8.7 47.7
07:25 1015 29.97 845 24.95 14.7 58.5 67 8.8 47.8
07:30 1016 30 845 24.95 14.8 58.7 68 9.1 48.3
07:35 1016 30 845 24.95 14.8 58.6 69 9.3 48.7
07:40 1016 30 845 24.95 14.4 58 70 9.1 48.4
07:45 1016 30 845 24.95 14.5 58 69 9 48.1
07:50 1016 30 845 24.95 14.6 58.2 69 9 48.1
07:55 1016 30 846 24.98 14.6 58.3 69 9.1 48.4
08:00 1016 30 845 24.95 14.6 58.3 68 8.9 48.1
08:05 1016 30 845 24.95 14.8 58.7 68 9.1 48.3
08:10 1016 30 845 24.95 15 59.1 66 8.9 47.9
08:15 1016 30 845 24.95 15.3 59.5 62 8.1 46.6
08:20 1016 30 845 24.95 15.6 60.1 58 7.4 45.3
08:25 1016 30 845 24.95 15.9 60.7 57 7.4 45.4
08:30 1015 29.97 845 24.95 16.1 61 55 7.1 44.8
08:35 1015 29.97 844 24.92 16.3 61.4 53 6.7 44
08:40 1015 29.97 844 24.92 16.4 61.6 51 6.3 43.4
08:45 1015 29.97 844 24.92 16.4 61.6 52 6.6 43.9
08:50 1015 29.97 844 24.92 16.3 61.4 52 6.5 43.8
08:55 1015 29.97 844 24.92 16.4 61.4 52 6.5 43.6
09:00 1015 29.97 844 24.92 16.5 61.8 51 6.6 43.8
09:05 1015 29.97 844 24.92 16.6 61.9 52 6.7 44.1
09:10 1015 29.97 844 24.92 16.7 62.1 49 6.1 43
09:15 1015 29.97 844 24.92 16.9 62.4 53 7.4 45.2
09:20 1015 29.97 844 24.92 17 62.6 52 7.1 44.7
09:25 1015 29.97 844 24.92 16.9 62.5 53 7.5 45.4
09:30 1015 29.97 844 24.92 16.8 62.3 55 7.8 46
09:35 1015 29.97 844 24.92 16.6 62 55 7.7 45.9
09:40 1015 29.97 844 24.92 16.7 62.1 53 7.1 44.8
09:45 1015 29.97 844 24.92 16.9 62.4 52 7.1 44.8
09:50 1015 29.97 844 24.92 17.2 62.9 50 6.9 44.4
09:55 1015 29.97 844 24.92 17.4 63.4 50 7 44.7
10:00 1015 29.97 844 24.92 17.3 63.1 50 7 44.6
10:05 1015 29.97 845 24.95 17.4 63.3 47 6.2 43.1
10:10 1015 29.97 844 24.92 17.7 63.8 49 6.9 44.4
10:15 1015 29.97 844 24.92 18.5 65.3 44 6.2 43.1
10:20 1015 29.97 844 24.92 19 66.2 44 6.5 43.6
10:25 1015 29.97 844 24.92 19 66.2 41 5.6 42.1
10:30 1015 29.97 844 24.92 19.1 66.3 42 5.9 42.5
10:35 1015 29.97 844 24.92 19.8 67.7 39 5.5 41.9
10:40 1015 29.97 844 24.92 20.4 68.8 38 5.8 42.4
10:45 1015 29.97 844 24.92 20.1 68.2 39 5.7 42.3
10:50 1015 29.97 844 24.92 20 68 40 6.2 43.2
10:55 1015 29.97 844 24.92 20.5 68.8 39 6 42.8
11:00 1015 29.97 844 24.92 21.1 70 37 5.9 42.6
11:05 1015 29.97 844 24.92 21.5 70.8 36 6 42.7
11:10 1015 29.97 844 24.92 22.1 71.7 35 6.3 43.3
11:15 1015 29.97 844 24.92 21.9 71.4 36 6.3 43.4
11:20 1015 29.97 844 24.92 22.3 72.2 34 5.8 42.4
11:25 1015 29.97 844 24.92 22.2 72 34 5.9 42.6
11:30 1015 29.97 844 24.92 22.6 72.7 30 4.5 40.1
11:35 1015 29.97 844 24.92 22.7 72.8 32 5.5 42
11:40 1015 29.97 844 24.92 22.3 72.2 33 5.3 41.6
11:45 1015 29.97 844 24.92 21.5 70.6 37 6.2 43.1
11:50 1015 29.97 844 24.92 20.6 69.2 45 8.5 47.3
11:55 1015 29.97 844 24.92 19.5 67 48 8.2 46.8
12:00 1015 29.97 844 24.92 19.4 66.9 49 8.7 47.6
12:05 1015 29.97 845 24.95 18.2 64.7 60 10.3 50.5
12:10 1016 30 845 24.95 17 62.6 64 10.3 50.5
12:15 1016 30 845 24.95 16.7 62 65 10.1 50.3
12:20 1016 30 845 24.95 16.4 61.5 67 10.3 50.5
12:25 1016 30 845 24.95 16.6 61.8 65 10 50.1
12:30 1016 30 845 24.95 16.7 62 59 8.8 47.8
12:35 1016 30 845 24.95 16.7 62.1 59 8.8 47.9
12:40 1016 30 845 24.95 17 62.6 58 8.7 47.6
12:45 1016 30 845 24.95 17 62.5 59 9.1 48.4
12:50 1016 30 845 24.95 16.9 62.5 61 9.4 48.8
12:55 1016 30 845 24.95 16.7 62 62 9.6 49.2
13:00 1016 30 845 24.95 16.9 62.5 61 9.5 49.1
13:05 1016 30 845 24.95 17.1 62.8 60 9.4 49
13:10 1016 30 845 24.95 17.6 63.7 53 8.1 46.5
13:15 1016 30 845 24.95 18.5 65.3 45 6.5 43.8
13:20 1016 30 845 24.95 18.9 65.9 50 8.3 46.9
13:25 1016 30 845 24.95 18.5 65.2 48 7.3 45.1
13:30 1016 30 845 24.95 18.1 64.5 49 7.4 45.4
13:35 1016 30 845 24.95 17.8 64 49 6.9 44.5
13:40 1016 30 845 24.95 17.7 63.9 50 7.4 45.3
13:45 1016 30 845 24.95 18.5 65.2 42 5.3 41.6
13:50 1016 30 845 24.95 18.8 65.9 40 5.2 41.3
13:55 1016 30 845 24.95 19 66.2 40 5.1 41.3
14:00 1016 30 845 24.95 19 66.2 40 5.4 41.7
14:05 1015 29.97 845 24.95 18.8 65.8 39 4.6 40.2
14:10 1016 30 845 24.95 19.2 66.5 36 3.7 38.7
14:15 1016 30 845 24.95 19.7 67.4 35 3.8 38.8
14:20 1015 29.97 845 24.95 20 67.9 34 3.8 38.9
14:25 1015 29.97 845 24.95 20.2 68.3 34 4 39.2
14:30 1016 30 845 24.95 20.5 69 33 3.7 38.6
14:35 1016 30 845 24.95 21.3 70.3 32 4.2 39.6
14:40 1016 30 845 24.95 21.5 70.7 33 4.8 40.6
14:45 1016 30 845 24.95 21.3 70.4 32 4.4 39.9
14:50 1016 30 845 24.95 20.9 69.7 33 4.3 39.8
14:55 1015 29.97 845 24.95 21.2 70.1 33 4.3 39.8
15:00 1015 29.97 845 24.95 21.8 71.3 30 3.6 38.5
15:05 1015 29.97 844 24.92 22.4 72.3 31 4.8 40.6
15:10 1015 29.97 844 24.92 22.5 72.6 29 3.8 38.8
15:15 1015 29.97 844 24.92 22.5 72.6 30 4.2 39.6
15:20 1015 29.97 844 24.92 22.6 72.6 32 5.3 41.6
15:25 1015 29.97 844 24.92 23.1 73.5 30 4.7 40.4
15:30 1015 29.97 844 24.92 23 73.4 30 4.8 40.7
15:35 1015 29.97 844 24.92 22.8 73.1 28 3.8 38.8
15:40 1015 29.97 844 24.92 23.5 74.3 26 3.4 38.1
15:45 1015 29.97 844 24.92 22.5 72.5 30 4.2 39.5
15:50 1015 29.97 844 24.92 22.4 72.3 30 4.2 39.6
15:55 1015 29.97 844 24.92 22.9 73.2 29 4.3 39.7
16:00 1015 29.97 844 24.92 22.6 72.7 31 4.7 40.5
16:05 1015 29.97 844 24.92 22.6 72.7 31 4.7 40.5
16:10 1015 29.97 844 24.92 22.5 72.5 31 4.8 40.6
16:15 1015 29.97 844 24.92 22.4 72.4 31 4.5 40.1
16:20 1015 29.97 844 24.92 22.1 71.7 32 5 41
16:25 1015 29.97 844 24.92 21.6 70.9 34 5.1 41.1
16:30 1015 29.97 844 24.92 21 69.8 35 5.1 41.2
16:35 1015 29.97 844 24.92 21.1 69.9 36 5.8 42.4
16:40 1015 29.97 844 24.92 20.6 69.1 44 8.1 46.6
16:45 1015 29.97 844 24.92 18.8 65.9 50 8.2 46.8
16:50 1015 29.97 845 24.95 18.1 64.6 51 8 46.4
16:55 1015 29.97 845 24.95 18.2 64.7 47 6.8 44.3
17:00 1015 29.97 845 24.95 18.4 65.1 44 6.2 43.2
17:05 1016 30 845 24.95 18.2 64.8 44 6 42.7
17:10 1016 30 845 24.95 18 64.4 48 6.8 44.3
17:15 1016 30 845 24.95 17.7 63.9 48 6.6 43.9
17:20 1016 30 845 24.95 17.6 63.7 49 6.8 44.2
17:25 1016 30 845 24.95 17.4 63.4 51 7.3 45.2
17:30 1016 30 845 24.95 17 62.5 55 7.8 46.1
17:35 1016 30 845 24.95 16.6 61.8 56 7.8 46
17:40 1016 30 845 24.95 16.6 61.9 58 8.3 46.9
17:45 1016 30 845 24.95 16.6 61.8 61 9 48.3
17:50 1016 30 845 24.95 16.2 61.2 65 9.6 49.4
17:55 1016 30 845 24.95 16.1 61.1 68 10.4 50.7
18:00 1016 30 845 24.95 15.6 60.1 69 10 50
18:05 1016 30 845 24.95 15.2 59.4 70 9.8 49.6
18:10 1016 30 845 24.95 15.2 59.3 67 9.1 48.4
18:15 1016 30 845 24.95 15.2 59.4 71 10.1 50.2
18:20 1016 30 845 24.95 15.2 59.3 69 9.6 49.3
18:25 1016 30 845 24.95 15.1 59.2 69 9.5 49.1
18:30 1016 30 845 24.95 15.2 59.4 69 9.7 49.5
18:35 1016 30 845 24.95 15.1 59.2 72 10.2 50.3
18:40 1015 29.97 845 24.95 15.2 59.4 71 10 50
18:45 1015 29.97 844 24.92 15.4 59.7 71 10.2 50.4
18:50 1015 29.97 844 24.92 15.5 59.8 66 9.3 48.7
18:55 1015 29.97 844 24.92 15.7 60.2 64 8.9 48.1
19:00 1015 29.97 844 24.92 16.1 61 63 9 48.3
19:05 1015 29.97 844 24.92 16.5 61.7 60 8.8 47.9
19:10 1015 29.97 844 24.92 16.9 62.3 55 7.8 46.1
19:15 1015 29.97 844 24.92 16.8 62.3 57 8.3 46.9
19:20 1015 29.97 844 24.92 16.8 62.2 56 8.1 46.7
19:25 1015 29.97 844 24.92 16.8 62.3 58 8.6 47.5
19:30 1015 29.97 844 24.92 17 62.5 61 9.5 49.1
19:35 1015 29.97 844 24.92 16.9 62.4 61 9.4 48.9
19:40 1015 29.97 844 24.92 16.7 62.1 62 9.6 49.3
19:45 1015 29.97 845 24.95 16.7 62.1 63 9.8 49.6
19:50 1015 29.97 844 24.92 16.5 61.7 65 9.9 49.8
19:55 1015 29.97 844 24.92 16.4 61.4 64 9.6 49.3
20:00 1015 29.97 844 24.92 16.2 61.2 66 10 50
20:05 1015 29.97 844 24.92 16.1 61 64 9.5 49.1
20:10 1015 29.97 845 24.95 16.3 61.3 59 8.3 47
20:15 1015 29.97 845 24.95 16.6 62 60 8.9 48
20:20 1015 29.97 845 24.95 16.7 62.1 60 9.1 48.4
20:25 1015 29.97 845 24.95 16.7 62.1 59 8.7 47.7
20:30 1016 30 845 24.95 16.9 62.4 52 7.1 44.7
20:35 1016 30 845 24.95 17.1 62.8 49 6.6 43.8
20:40 1016 30 845 24.95 17.3 63.1 50 6.9 44.5
20:45 1016 30 845 24.95 17.2 63 51 7.2 45
20:50 1016 30 845 24.95 17.1 62.7 51 7 44.6
20:55 1016 30 845 24.95 17 62.6 52 7.1 44.7
21:00 1016 30 846 24.98 16.9 62.5 53 7.3 45.2
21:05 1016 30 846 24.98 16.8 62.2 53 7.1 44.8
21:10 1016 30 846 24.98 16.5 61.7 54 7.3 45.2
21:15 1016 30 846 24.98 16 60.8 57 7.6 45.6
21:20 1017 30.03 846 24.98 15.5 59.8 62 8.2 46.7
21:25 1017 30.03 846 24.98 15 59.1 64 8.4 47.1
21:30 1017 30.03 846 24.98 14.7 58.4 66 8.4 47.1
21:35 1017 30.03 846 24.98 14.2 57.6 70 8.8 47.9
21:40 1017 30.03 846 24.98 13.6 56.4 72 8.6 47.4
21:45 1016 30 846 24.98 13.6 56.6 70 8.3 47
21:50 1016 30 845 24.95 13.8 56.8 70 8.4 47.1
21:55 1016 30 845 24.95 13.9 56.9 67 7.8 46.1
22:00 1016 30 845 24.95 14.2 57.6 65 7.7 45.9
22:05 1016 30 845 24.95 14.4 58 64 7.7 45.9
22:10 1016 30 845 24.95 14.6 58.2 62 7.4 45.4
22:15 1015 29.97 845 24.95 14.6 58.2 62 7.5 45.4
22:20 1015 29.97 845 24.95 14.6 58.3 62 7.4 45.3
22:25 1015 29.97 845 24.95 14.6 58.3 61 7.2 45
22:30 1015 29.97 844 24.92 14.5 58.1 61 7.3 45.1
22:35 1015 29.97 844 24.92 14.4 57.9 62 7.3 45.1
22:40 1015 29.97 844 24.92 14.5 58.2 60 7 44.6
22:45 1015 29.97 844 24.92 14.7 58.4 59 6.9 44.4
22:50 1015 29.97 844 24.92 14.6 58.4 60 6.9 44.5
22:55 1015 29.97 844 24.92 14.6 58.3 59 6.8 44.3
23:00 1015 29.97 844 24.92 14.6 58.2 60 6.9 44.4
23:05 1015 29.97 844 24.92 14.3 57.8 62 7.3 45.1
23:10 1015 29.97 845 24.95 13.8 56.9 64 7.2 45
23:15 1015 29.97 845 24.95 13.6 56.4 64 7 44.7
23:20 1015 29.97 845 24.95 13.5 56.4 64 7 44.5
23:25 1015 29.97 845 24.95 13.5 56.3 61 6.3 43.3
23:30 1015 29.97 845 24.95 13.9 56.9 59 6.1 42.9
23:35 1015 29.97 845 24.95 14.1 57.3 61 6.8 44.2
23:40 1015 29.97 845 24.95 13.7 56.7 62 6.7 44.1
23:45 1015 29.97 845 24.95 13.7 56.6 62 6.6 43.8
23:50 1015 29.97 845 24.95 13.8 56.8 59 6.1 43
23:55 1015 29.97 845 24.95 14 57.2 62 6.9 44.5
24:00 1015 29.97 845 24.95 13.9 57 61 6.7 44